Mount Lookout, Ohio
Current Conditions -  °F | °C
As of 5:53 PM on Tuesday 27 Jan 2015 (Local Time) from KLUK Reporting Station
Clear Clear  
Wind Chill: 16°   Ceiling: Unl
Heat Index: 25°   Visibility: 10mi
Dew Point: 12°   Wind: 9mph
Humidity: 58%   Direction: 350°N
Pressure: 30.19"   Gusts: NA
Location:  39.1347°N, 84.4352°W
Report Text: KLUK 272253Z 35008KT 10SM CLR M04/M11 A3019 RMK AO2 SLP230 T10391111
Loading
Personal Weather Stations






























Interactive Weather Map New forecast layout! Learn more

10-Day Weather Forecast

Advertisements
Track Severe Weather on mobile